| Date | Time | Temp. (oF) | Dew Point (oF) | Rel. Hum. (%) | Press. (in.) | Wind Dir. | Wind Speed (mph) | Hourly Rainfall (in.) |
|
|---|---|---|---|---|---|---|---|---|---|
| 1 | 08/05 | 00:00 | 69 | 61 | 78 | 29.86 | SSW | 1 | 0.00 |
| 2 | 08/04 | 23:00 | 70 | 59 | 70 | 29.84 | SW | 0 | 0.00 |
| 3 | 08/04 | 22:00 | 73 | 57 | 59 | 29.84 | SSW | 0 | 0.00 |
| 4 | 08/04 | 21:00 | 78 | 55 | 46 | 29.83 | NNE | 0 | 0.00 |
| 5 | 08/04 | 20:00 | 82 | 55 | 41 | 29.81 | NNE | 3 | 0.00 |
| 6 | 08/04 | 19:00 | 84 | 56 | 40 | 29.79 | NNE | 5 | 0.00 |
| 7 | 08/04 | 18:00 | 85 | 59 | 42 | 29.79 | WNW | 3 | 0.00 |
| 8 | 08/04 | 17:00 | 86 | 59 | 42 | 29.80 | WSW | 4 | 0.00 |
| 9 | 08/04 | 16:00 | 86 | 58 | 40 | 29.81 | W | 1 | 0.00 |
| 10 | 08/04 | 15:00 | 86 | 59 | 41 | 29.82 | SW | 6 | 0.00 |
| 11 | 08/04 | 14:00 | 86 | 59 | 42 | 29.83 | SW | 9 | 0.00 |
| 12 | 08/04 | 13:00 | 85 | 59 | 43 | 29.83 | SW | 5 | 0.00 |
| 13 | 08/04 | 12:00 | 84 | 67 | 57 | 29.83 | SW | 6 | 0.00 |
| 14 | 08/04 | 11:00 | 81 | 68 | 65 | 29.84 | SSW | 5 | 0.00 |
| 15 | 08/04 | 10:00 | 77 | 68 | 74 | 29.83 | SW | 8 | 0.00 |
| 16 | 08/04 | 09:00 | 73 | 67 | 83 | 29.83 | SW | 2 | 0.00 |
| 17 | 08/04 | 08:00 | 69 | 64 | 86 | 29.82 | WSW | 0 | 0.00 |
| 18 | 08/04 | 07:00 | 66 | 61 | 86 | 29.81 | ENE | 0 | 0.00 |
| 19 | 08/04 | 06:00 | 67 | 62 | 86 | 29.81 | SSW | 0 | 0.01 |
| 20 | 08/04 | 05:00 | 66 | 61 | 86 | 29.79 | SW | 1 | 0.22 |
| 21 | 08/04 | 04:00 | 67 | 62 | 85 | 29.83 | N | 16 | 0.18 |
| 22 | 08/04 | 03:00 | 69 | 64 | 86 | 29.77 | S | 1 | 0.00 |
| 23 | 08/04 | 02:00 | 69 | 64 | 85 | 29.75 | WSW | 0 | 0.01 |
| 24 | 08/04 | 01:00 | 71 | 65 | 83 | 29.74 | SSE | 0 | 0.03 |